PRIVATE WETTERSTATION BILLIGHEIM-ALLFELD                       ZURCK
Wetterdaten: Samstag, 29.03.2014
Datum Zeit Temp. A. Temp. A. min Temp. A. max Feuchte A. Luftdruck Regen Wind Richtung Richtung Sonnenschein ET Solar Taupunkt Windchill Windben Empfang
29.03.2014 00:00 7,5 C 7,5 C 7,9 C 70 % 1019,0 hPa 0,0 l/m 0,0 km/h (0 Bft) N 360 0 min 0,025 mm 0 W/m 2,4 C 7,5 C 6,4 km/h (2 Bft) 100 %
29.03.2014 00:10 7,2 C 7,2 C 7,5 C 71 % 1019,0 hPa 0,0 l/m 0,0 km/h (0 Bft) N-NW 337 0 min 0,000 mm 0 W/m 2,3 C 7,2 C 4,8 km/h (1 Bft) 80 %
29.03.2014 00:20 7,1 C 7,1 C 7,2 C 72 % 1019,0 hPa 0,0 l/m 0,0 km/h (0 Bft) N-NO 22 0 min 0,000 mm 0 W/m 2,4 C 7,1 C 6,4 km/h (2 Bft) 100 %
29.03.2014 00:30 6,8 C 6,8 C 7,1 C 72 % 1019,0 hPa 0,0 l/m 0,0 km/h (0 Bft) N-NW 337 0 min 0,000 mm 0 W/m 2,1 C 6,8 C 9,7 km/h (2 Bft) 100 %
29.03.2014 00:40 6,7 C 6,7 C 6,8 C 73 % 1019,0 hPa 0,0 l/m 0,0 km/h (0 Bft) N 360 0 min 0,000 mm 0 W/m 2,2 C 6,7 C 4,8 km/h (1 Bft) 100 %
29.03.2014 00:50 6,7 C 6,7 C 6,7 C 73 % 1018,9 hPa 0,0 l/m 0,0 km/h (0 Bft) N-NO 22 0 min 0,000 mm 0 W/m 2,2 C 6,7 C 6,4 km/h (2 Bft) 100 %
29.03.2014 01:00 6,7 C 6,7 C 6,8 C 73 % 1019,0 hPa 0,0 l/m 0,0 km/h (0 Bft) N-NO 22 0 min 0,025 mm 0 W/m 2,2 C 6,7 C 4,8 km/h (1 Bft) 100 %
29.03.2014 01:10 6,6 C 6,6 C 6,7 C 74 % 1019,0 hPa 0,0 l/m 0,0 km/h (0 Bft) N 360 0 min 0,000 mm 0 W/m 2,3 C 6,6 C 1,6 km/h (1 Bft) 100 %
29.03.2014 01:20 6,3 C 6,3 C 6,6 C 75 % 1019,0 hPa 0,0 l/m 0,0 km/h (0 Bft) N 360 0 min 0,000 mm 0 W/m 2,2 C 6,3 C 1,6 km/h (1 Bft) 100 %
29.03.2014 01:30 6,1 C 6,1 C 6,3 C 75 % 1019,0 hPa 0,0 l/m 0,0 km/h (0 Bft) NW 315 0 min 0,000 mm 0 W/m 2,0 C 6,1 C 4,8 km/h (1 Bft) 100 %
29.03.2014 01:40 5,9 C 5,9 C 6,1 C 76 % 1019,0 hPa 0,0 l/m 0,0 km/h (0 Bft) N-NW 337 0 min 0,000 mm 0 W/m 2,0 C 5,9 C 1,6 km/h (1 Bft) 100 %
29.03.2014 01:50 5,7 C 5,7 C 5,9 C 77 % 1018,9 hPa 0,0 l/m 0,0 km/h (0 Bft) N-NW 337 0 min 0,000 mm 0 W/m 2,0 C 5,7 C 3,2 km/h (1 Bft) 100 %
29.03.2014 02:00 5,4 C 5,4 C 5,7 C 78 % 1018,9 hPa 0,0 l/m 0,0 km/h (0 Bft) NW 315 0 min 0,025 mm 0 W/m 1,9 C 5,4 C 6,4 km/h (2 Bft) 100 %
29.03.2014 02:10 5,2 C 5,2 C 5,4 C 79 % 1019,0 hPa 0,0 l/m 0,0 km/h (0 Bft) N-NW 337 0 min 0,000 mm 0 W/m 1,9 C 5,2 C 4,8 km/h (1 Bft) 100 %
29.03.2014 02:20 5,0 C 5,0 C 5,2 C 79 % 1018,9 hPa 0,0 l/m 0,0 km/h (0 Bft) N-NW 337 0 min 0,000 mm 0 W/m 1,7 C 5,0 C 6,4 km/h (2 Bft) 100 %
29.03.2014 02:30 4,7 C 4,7 C 5,0 C 79 % 1018,9 hPa 0,0 l/m 0,0 km/h (0 Bft) N-NW 337 0 min 0,000 mm 0 W/m 1,4 C 4,7 C 3,2 km/h (1 Bft) 100 %
29.03.2014 02:40 4,4 C 4,4 C 4,7 C 81 % 1019,1 hPa 0,0 l/m 0,0 km/h (0 Bft) N-NW 337 0 min 0,000 mm 0 W/m 1,4 C 4,4 C 4,8 km/h (1 Bft) 100 %
29.03.2014 02:50 4,2 C 4,2 C 4,4 C 81 % 1019,1 hPa 0,0 l/m 0,0 km/h (0 Bft) N-NW 337 0 min 0,000 mm 0 W/m 1,2 C 4,2 C 1,6 km/h (1 Bft) 100 %
29.03.2014 03:00 4,0 C 4,0 C 4,2 C 82 % 1019,1 hPa 0,0 l/m 0,0 km/h (0 Bft) N-NW 337 0 min 0,000 mm 0 W/m 1,2 C 4,0 C 3,2 km/h (1 Bft) 100 %
29.03.2014 03:10 3,8 C 3,8 C 4,0 C 83 % 1019,1 hPa 0,0 l/m 0,0 km/h (0 Bft) N-NW 337 0 min 0,000 mm 0 W/m 1,2 C 3,8 C 1,6 km/h (1 Bft) 100 %
29.03.2014 03:20 3,8 C 3,8 C 3,8 C 83 % 1019,2 hPa 0,0 l/m 0,0 km/h (0 Bft) N-NW 337 0 min 0,000 mm 0 W/m 1,2 C 3,8 C 3,2 km/h (1 Bft) 100 %
29.03.2014 03:30 3,7 C 3,7 C 3,8 C 83 % 1019,2 hPa 0,0 l/m 0,0 km/h (0 Bft) N-NW 337 0 min 0,000 mm 0 W/m 1,1 C 3,7 C 4,8 km/h (1 Bft) 100 %
29.03.2014 03:40 3,7 C 3,7 C 3,7 C 83 % 1019,2 hPa 0,0 l/m 0,0 km/h (0 Bft) N 360 0 min 0,000 mm 0 W/m 1,1 C 3,7 C 1,6 km/h (1 Bft) 100 %
29.03.2014 03:50 3,6 C 3,6 C 3,7 C 84 % 1019,2 hPa 0,0 l/m 0,0 km/h (0 Bft) N 360 0 min 0,000 mm 0 W/m 1,2 C 3,6 C 3,2 km/h (1 Bft) 100 %
29.03.2014 04:00 3,6 C 3,6 C 3,6 C 84 % 1019,2 hPa 0,0 l/m 0,0 km/h (0 Bft) N 360 0 min 0,000 mm 0 W/m 1,2 C 3,6 C 1,6 km/h (1 Bft) 100 %
29.03.2014 04:10 3,4 C 3,3 C 3,6 C 84 % 1019,3 hPa 0,0 l/m 0,0 km/h (0 Bft) N 360 0 min 0,000 mm 0 W/m 1,0 C 3,4 C 3,2 km/h (1 Bft) 100 %
29.03.2014 04:20 3,1 C 3,1 C 3,3 C 85 % 1019,4 hPa 0,0 l/m 0,0 km/h (0 Bft) N 360 0 min 0,000 mm 0 W/m 0,8 C 3,1 C 1,6 km/h (1 Bft) 99 %
29.03.2014 04:30 3,1 C 3,1 C 3,2 C 85 % 1019,5 hPa 0,0 l/m 0,0 km/h (0 Bft) N-NW 337 0 min 0,000 mm 0 W/m 0,8 C 3,1 C 4,8 km/h (1 Bft) 100 %
29.03.2014 04:40 3,0 C 3,0 C 3,1 C 85 % 1019,5 hPa 0,0 l/m 0,0 km/h (0 Bft) N-NW 337 0 min 0,000 mm 0 W/m 0,7 C 3,0 C 4,8 km/h (1 Bft) 99 %
29.03.2014 04:50 3,1 C 3,0 C 3,1 C 86 % 1019,5 hPa 0,0 l/m 0,0 km/h (0 Bft) N-NW 337 0 min 0,000 mm 0 W/m 1,0 C 3,1 C 1,6 km/h (1 Bft) 100 %
29.03.2014 05:00 3,1 C 3,1 C 3,1 C 85 % 1019,5 hPa 0,0 l/m 0,0 km/h (0 Bft) N-NW 337 0 min 0,000 mm 0 W/m 0,8 C 3,1 C 3,2 km/h (1 Bft) 89 %
29.03.2014 05:10 3,1 C 3,0 C 3,1 C 86 % 1019,4 hPa 0,0 l/m 0,0 km/h (0 Bft) N-NW 337 0 min 0,000 mm 0 W/m 1,0 C 3,1 C 1,6 km/h (1 Bft) 100 %
29.03.2014 05:20 3,2 C 3,1 C 3,2 C 86 % 1019,4 hPa 0,0 l/m 0,0 km/h (0 Bft) N 360 0 min 0,000 mm 0 W/m 1,1 C 3,2 C 1,6 km/h (1 Bft) 100 %
29.03.2014 05:30 3,2 C 3,2 C 3,2 C 85 % 1019,4 hPa 0,0 l/m 0,0 km/h (0 Bft) N 360 0 min 0,000 mm 0 W/m 0,9 C 3,2 C 3,2 km/h (1 Bft) 100 %
29.03.2014 05:40 3,0 C 3,0 C 3,2 C 86 % 1019,5 hPa 0,0 l/m 1,6 km/h (1 Bft) N-NW 337 0 min 0,000 mm 0 W/m 0,9 C 3,0 C 6,4 km/h (2 Bft) 100 %
29.03.2014 05:50 2,9 C 2,9 C 3,0 C 86 % 1019,6 hPa 0,0 l/m 1,6 km/h (1 Bft) N 360 0 min 0,000 mm 0 W/m 0,8 C 2,9 C 9,7 km/h (2 Bft) 100 %
29.03.2014 06:00 2,8 C 2,8 C 2,9 C 86 % 1019,6 hPa 0,0 l/m 0,0 km/h (0 Bft) N-NO 22 0 min 0,000 mm 0 W/m 0,7 C 2,8 C 4,8 km/h (1 Bft) 100 %
29.03.2014 06:10 3,0 C 2,8 C 3,0 C 87 % 1019,6 hPa 0,0 l/m 0,0 km/h (0 Bft) N-NO 22 0 min 0,000 mm 5 W/m 1,1 C 3,0 C 6,4 km/h (2 Bft) 100 %
29.03.2014 06:20 3,2 C 3,0 C 3,2 C 86 % 1019,7 hPa 0,0 l/m 0,0 km/h (0 Bft) N-NW 337 0 min 0,000 mm 11 W/m 1,1 C 3,2 C 4,8 km/h (1 Bft) 100 %
29.03.2014 06:30 3,2 C 3,2 C 3,2 C 86 % 1019,7 hPa 0,0 l/m 0,0 km/h (0 Bft) N-NW 337 0 min 0,000 mm 16 W/m 1,1 C 3,2 C 6,4 km/h (2 Bft) 100 %
29.03.2014 06:40 3,1 C 3,1 C 3,2 C 86 % 1019,7 hPa 0,0 l/m 1,6 km/h (1 Bft) N-NW 337 0 min 0,000 mm 19 W/m 1,0 C 3,1 C 6,4 km/h (2 Bft) 90 %
29.03.2014 06:50 3,0 C 3,0 C 3,1 C 86 % 1019,9 hPa 0,0 l/m 0,0 km/h (0 Bft) N-NW 337 0 min 0,000 mm 25 W/m 0,9 C 3,0 C 4,8 km/h (1 Bft) 100 %
29.03.2014 07:00 3,1 C 3,0 C 3,1 C 87 % 1019,9 hPa 0,0 l/m 0,0 km/h (0 Bft) N-NW 337 0 min 0,000 mm 35 W/m 1,2 C 3,1 C 4,8 km/h (1 Bft) 100 %
29.03.2014 07:10 3,2 C 3,1 C 3,2 C 87 % 1020,0 hPa 0,0 l/m 0,0 km/h (0 Bft) N 360 0 min 0,000 mm 33 W/m 1,2 C 3,2 C 3,2 km/h (1 Bft) 100 %
29.03.2014 07:20 3,4 C 3,2 C 3,4 C 87 % 1020,2 hPa 0,0 l/m 0,0 km/h (0 Bft) N-NW 337 0 min 0,000 mm 63 W/m 1,4 C 3,4 C 1,6 km/h (1 Bft) 100 %
29.03.2014 07:30 3,9 C 3,5 C 3,9 C 87 % 1020,3 hPa 0,0 l/m 0,0 km/h (0 Bft) N 360 10 min 0,000 mm 158 W/m 1,9 C 3,9 C 1,6 km/h (1 Bft) 100 %
29.03.2014 07:40 4,6 C 3,9 C 4,6 C 87 % 1020,3 hPa 0,0 l/m 0,0 km/h (0 Bft) N 360 10 min 0,000 mm 193 W/m 2,6 C 4,6 C 1,6 km/h (1 Bft) 100 %
29.03.2014 07:50 5,5 C 4,6 C 5,5 C 85 % 1020,3 hPa 0,0 l/m 0,0 km/h (0 Bft) N 360 10 min 0,000 mm 220 W/m 3,2 C 5,5 C 1,6 km/h (1 Bft) 100 %
29.03.2014 08:00 6,5 C 5,6 C 6,5 C 82 % 1020,3 hPa 0,0 l/m 0,0 km/h (0 Bft) W-NW 292 10 min 0,051 mm 248 W/m 3,7 C 6,5 C 4,8 km/h (1 Bft) 100 %
29.03.2014 08:10 7,3 C 6,5 C 7,3 C 79 % 1020,2 hPa 0,0 l/m 0,0 km/h (0 Bft) NO 45 10 min 0,000 mm 278 W/m 3,9 C 7,3 C 3,2 km/h (1 Bft) 100 %
29.03.2014 08:20 8,1 C 7,3 C 8,1 C 77 % 1020,2 hPa 0,0 l/m 0,0 km/h (0 Bft) N-NO 22 10 min 0,000 mm 304 W/m 4,3 C 8,1 C 1,6 km/h (1 Bft) 100 %
29.03.2014 08:30 8,8 C 8,1 C 8,8 C 73 % 1020,3 hPa 0,0 l/m 0,0 km/h (0 Bft) NO 45 10 min 0,000 mm 330 W/m 4,2 C 8,8 C 4,8 km/h (1 Bft) 100 %
29.03.2014 08:40 9,4 C 8,8 C 9,4 C 71 % 1020,3 hPa 0,0 l/m 0,0 km/h (0 Bft) N-NO 22 10 min 0,000 mm 360 W/m 4,4 C 9,4 C 4,8 km/h (1 Bft) 100 %
29.03.2014 08:50 9,9 C 8,8 C 9,9 C 68 % 1020,3 hPa 0,0 l/m 0,8 km/h (0 Bft) NO 38 10 min 0,000 mm 387 W/m 4,3 C 9,9 C 9,7 km/h (2 Bft) 100 %
29.03.2014 09:00 10,5 C 9,9 C 10,5 C 68 % 1020,3 hPa 0,0 l/m 0,1 km/h (0 Bft) NO 42 10 min 0,128 mm 410 W/m 4,8 C 10,5 C 3,2 km/h (1 Bft) 100 %
29.03.2014 09:10 11,1 C 10,5 C 11,1 C 64 % 1020,2 hPa 0,0 l/m 0,2 km/h (0 Bft) O 85 10 min 0,000 mm 436 W/m 4,6 C 11,1 C 6,4 km/h (2 Bft) 100 %
29.03.2014 09:20 11,7 C 11,1 C 11,7 C 62 % 1020,2 hPa 0,0 l/m 0,8 km/h (0 Bft) O-SO 104 10 min 0,000 mm 461 W/m 4,7 C 11,7 C 9,7 km/h (2 Bft) 100 %
29.03.2014 09:30 12,0 C 11,7 C 12,0 C 62 % 1020,0 hPa 0,0 l/m 0,5 km/h (0 Bft) S-SW 209 10 min 0,000 mm 480 W/m 4,9 C 12,0 C 4,8 km/h (1 Bft) 100 %
29.03.2014 09:40 12,4 C 12,0 C 12,4 C 60 % 1020,0 hPa 0,0 l/m 0,4 km/h (0 Bft) NO 42 10 min 0,000 mm 503 W/m 4,9 C 12,4 C 4,8 km/h (1 Bft) 100 %
29.03.2014 09:50 12,8 C 12,4 C 12,8 C 60 % 1020,0 hPa 0,0 l/m 0,6 km/h (0 Bft) NO 50 10 min 0,000 mm 520 W/m 5,2 C 12,8 C 11,3 km/h (2 Bft) 100 %
29.03.2014 10:00 12,9 C 12,8 C 12,9 C 61 % 1019,9 hPa 0,0 l/m 0,9 km/h (0 Bft) N-NW 348 10 min 0,229 mm 540 W/m 5,6 C 12,9 C 6,4 km/h (2 Bft) 100 %
29.03.2014 10:10 13,1 C 12,9 C 13,1 C 60 % 1020,0 hPa 0,0 l/m 0,7 km/h (0 Bft) NO 42 10 min 0,000 mm 559 W/m 5,5 C 13,1 C 4,8 km/h (1 Bft) 100 %
29.03.2014 10:20 13,4 C 13,1 C 13,4 C 59 % 1020,0 hPa 0,0 l/m 1,4 km/h (1 Bft) O-SO 103 10 min 0,000 mm 577 W/m 5,6 C 13,4 C 12,9 km/h (3 Bft) 100 %
29.03.2014 10:30 14,0 C 13,4 C 14,0 C 57 % 1019,8 hPa 0,0 l/m 0,6 km/h (0 Bft) N-NW 327 10 min 0,000 mm 596 W/m 5,6 C 14,0 C 6,4 km/h (2 Bft) 100 %
29.03.2014 10:40 14,3 C 14,0 C 14,3 C 55 % 1019,8 hPa 0,0 l/m 4,1 km/h (1 Bft) N-NO 32 10 min 0,000 mm 608 W/m 5,4 C 14,3 C 20,9 km/h (4 Bft) 100 %
29.03.2014 10:50 14,6 C 14,3 C 14,6 C 54 % 1019,6 hPa 0,0 l/m 2,8 km/h (1 Bft) O-NO 71 10 min 0,000 mm 622 W/m 5,4 C 14,6 C 14,5 km/h (3 Bft) 100 %
29.03.2014 11:00 15,1 C 14,6 C 15,1 C 53 % 1019,6 hPa 0,0 l/m 3,0 km/h (1 Bft) O 100 10 min 0,304 mm 635 W/m 5,6 C 15,1 C 12,9 km/h (3 Bft) 100 %
29.03.2014 11:10 15,3 C 15,1 C 15,3 C 52 % 1019,5 hPa 0,0 l/m 3,4 km/h (1 Bft) O 91 10 min 0,000 mm 647 W/m 5,5 C 15,3 C 12,9 km/h (3 Bft) 100 %
29.03.2014 11:20 15,7 C 15,3 C 15,7 C 53 % 1019,3 hPa 0,0 l/m 2,4 km/h (1 Bft) O-NO 69 10 min 0,000 mm 659 W/m 6,1 C 15,7 C 16,1 km/h (3 Bft) 100 %
29.03.2014 11:30 16,3 C 15,7 C 16,3 C 51 % 1019,2 hPa 0,0 l/m 1,6 km/h (1 Bft) W 274 10 min 0,000 mm 661 W/m 6,1 C 16,3 C 8,0 km/h (2 Bft) 100 %
29.03.2014 11:40 16,6 C 16,3 C 16,6 C 48 % 1019,2 hPa 0,0 l/m 3,6 km/h (1 Bft) O-NO 77 10 min 0,000 mm 673 W/m 5,5 C 16,6 C 11,3 km/h (2 Bft) 100 %
29.03.2014 11:50 16,8 C 16,6 C 16,8 C 49 % 1019,2 hPa 0,0 l/m 1,2 km/h (1 Bft) SO 125 10 min 0,000 mm 677 W/m 6,0 C 16,8 C 11,3 km/h (2 Bft) 100 %
29.03.2014 12:00 17,3 C 16,8 C 17,3 C 43 % 1019,2 hPa 0,0 l/m 3,6 km/h (1 Bft) SO 138 10 min 0,381 mm 687 W/m 4,6 C 17,3 C 24,1 km/h (4 Bft) 100 %
29.03.2014 12:10 17,6 C 17,3 C 17,6 C 41 % 1019,1 hPa 0,0 l/m 2,2 km/h (1 Bft) O-SO 116 10 min 0,000 mm 680 W/m 4,2 C 17,6 C 14,5 km/h (3 Bft) 100 %
29.03.2014 12:20 17,7 C 17,6 C 17,7 C 43 % 1019,0 hPa 0,0 l/m 3,1 km/h (1 Bft) S 188 10 min 0,000 mm 701 W/m 5,0 C 17,7 C 22,5 km/h (4 Bft) 100 %
29.03.2014 12:30 18,2 C 17,7 C 18,2 C 39 % 1018,9 hPa 0,0 l/m 3,3 km/h (1 Bft) NO 46 10 min 0,000 mm 693 W/m 4,0 C 18,2 C 14,5 km/h (3 Bft) 100 %
29.03.2014 12:40 18,0 C 18,0 C 18,2 C 37 % 1018,9 hPa 0,0 l/m 5,0 km/h (1 Bft) O 99 10 min 0,000 mm 677 W/m 3,1 C 18,0 C 22,5 km/h (4 Bft) 100 %
29.03.2014 12:50 18,3 C 17,9 C 18,3 C 40 % 1018,8 hPa 0,0 l/m 1,4 km/h (1 Bft) NW 321 10 min 0,000 mm 668 W/m 4,5 C 18,3 C 11,3 km/h (2 Bft) 100 %
29.03.2014 13:00 18,6 C 18,3 C 18,6 C 37 % 1018,7 hPa 0,0 l/m 2,6 km/h (1 Bft) NO 48 10 min 0,407 mm 636 W/m 3,6 C 18,6 C 19,3 km/h (3 Bft) 100 %
29.03.2014 13:10 18,8 C 18,6 C 18,8 C 37 % 1018,6 hPa 0,0 l/m 3,1 km/h (1 Bft) O-SO 105 10 min 0,000 mm 642 W/m 3,8 C 18,8 C 17,7 km/h (3 Bft) 100 %
29.03.2014 13:20 18,9 C 18,7 C 18,9 C 40 % 1018,5 hPa 0,0 l/m 2,3 km/h (1 Bft) O 98 10 min 0,000 mm 661 W/m 5,0 C 18,9 C 12,9 km/h (3 Bft) 100 %
29.03.2014 13:30 18,9 C 18,9 C 18,9 C 37 % 1018,3 hPa 0,0 l/m 1,6 km/h (1 Bft) N-NO 27 10 min 0,000 mm 656 W/m 3,9 C 18,9 C 12,9 km/h (3 Bft) 100 %
29.03.2014 13:40 18,9 C 18,9 C 19,1 C 38 % 1018,3 hPa 0,0 l/m 3,4 km/h (1 Bft) O 80 10 min 0,000 mm 661 W/m 4,3 C 18,9 C 22,5 km/h (4 Bft) 100 %
29.03.2014 13:50 18,7 C 18,7 C 18,9 C 40 % 1018,2 hPa 0,0 l/m 4,0 km/h (1 Bft) NO 53 10 min 0,000 mm 629 W/m 4,8 C 18,7 C 16,1 km/h (3 Bft) 100 %
29.03.2014 14:00 18,8 C 18,7 C 19,0 C 38 % 1018,2 hPa 0,0 l/m 2,8 km/h (1 Bft) SO 129 10 min 0,381 mm 584 W/m 4,2 C 18,8 C 17,7 km/h (3 Bft) 100 %
29.03.2014 14:10 18,6 C 18,6 C 18,8 C 40 % 1018,0 hPa 0,0 l/m 4,1 km/h (1 Bft) O 83 10 min 0,000 mm 570 W/m 4,7 C 18,6 C 19,3 km/h (3 Bft) 99 %
29.03.2014 14:20 18,7 C 18,6 C 18,8 C 40 % 1017,9 hPa 0,0 l/m 3,2 km/h (1 Bft) O 86 10 min 0,000 mm 483 W/m 4,8 C 18,7 C 17,7 km/h (3 Bft) 98 %
29.03.2014 14:30 18,9 C 18,7 C 18,9 C 40 % 1017,7 hPa 0,0 l/m 2,5 km/h (1 Bft) O-SO 118 10 min 0,000 mm 584 W/m 5,0 C 18,9 C 9,7 km/h (2 Bft) 98 %
29.03.2014 14:40 19,1 C 18,9 C 19,2 C 39 % 1017,7 hPa 0,0 l/m 1,5 km/h (1 Bft) SO 136 10 min 0,000 mm 413 W/m 4,8 C 19,1 C 11,3 km/h (2 Bft) 97 %
29.03.2014 14:50 18,9 C 18,8 C 19,1 C 41 % 1017,6 hPa 0,0 l/m 1,4 km/h (1 Bft) O 100 10 min 0,000 mm 480 W/m 5,4 C 18,9 C 11,3 km/h (2 Bft) 98 %
29.03.2014 15:00 19,4 C 18,9 C 19,4 C 39 % 1017,5 hPa 0,0 l/m 1,4 km/h (1 Bft) O 86 10 min 0,330 mm 517 W/m 5,1 C 19,4 C 11,3 km/h (2 Bft) 97 %
29.03.2014 15:10 19,2 C 19,1 C 19,4 C 40 % 1017,4 hPa 0,0 l/m 0,8 km/h (0 Bft) W-NW 296 10 min 0,000 mm 480 W/m 5,3 C 19,2 C 8,0 km/h (2 Bft) 97 %
29.03.2014 15:20 19,6 C 19,2 C 19,6 C 40 % 1017,3 hPa 0,0 l/m 0,8 km/h (0 Bft) W-NW 296 10 min 0,000 mm 469 W/m 5,6 C 19,6 C 11,3 km/h (2 Bft) 97 %
29.03.2014 15:30 19,8 C 19,6 C 19,8 C 37 % 1017,3 hPa 0,0 l/m 1,1 km/h (1 Bft) NO 50 10 min 0,000 mm 399 W/m 4,7 C 19,8 C 9,7 km/h (2 Bft) 98 %
29.03.2014 15:40 19,2 C 19,2 C 19,8 C 39 % 1017,2 hPa 0,0 l/m 2,8 km/h (1 Bft) O-NO 78 0 min 0,000 mm 151 W/m 4,9 C 19,2 C 11,3 km/h (2 Bft) 98 %
29.03.2014 15:50 18,9 C 18,9 C 19,2 C 41 % 1017,0 hPa 0,0 l/m 3,2 km/h (1 Bft) NO 55 0 min 0,000 mm 86 W/m 5,4 C 18,9 C 17,7 km/h (3 Bft) 98 %
29.03.2014 16:00 19,0 C 18,9 C 19,1 C 40 % 1016,9 hPa 0,0 l/m 1,8 km/h (1 Bft) NO 49 0 min 0,203 mm 81 W/m 5,1 C 19,0 C 9,7 km/h (2 Bft) 98 %
29.03.2014 16:10 18,8 C 18,8 C 19,1 C 42 % 1016,9 hPa 0,0 l/m 2,1 km/h (1 Bft) NO 41 0 min 0,000 mm 79 W/m 5,6 C 18,8 C 14,5 km/h (3 Bft) 97 %
29.03.2014 16:20 18,6 C 18,6 C 18,8 C 41 % 1016,8 hPa 0,0 l/m 1,0 km/h (0 Bft) O-NO 59 0 min 0,000 mm 93 W/m 5,1 C 18,6 C 16,1 km/h (3 Bft) 98 %
29.03.2014 16:30 18,5 C 18,5 C 18,6 C 42 % 1016,7 hPa 0,0 l/m 0,8 km/h (0 Bft) NO 49 0 min 0,000 mm 84 W/m 5,3 C 18,5 C 12,9 km/h (3 Bft) 97 %
29.03.2014 16:40 18,3 C 18,3 C 18,5 C 42 % 1016,7 hPa 0,0 l/m 1,3 km/h (1 Bft) N 11 0 min 0,000 mm 77 W/m 5,2 C 18,3 C 8,0 km/h (2 Bft) 98 %
29.03.2014 16:50 17,9 C 17,9 C 18,3 C 42 % 1016,8 hPa 0,0 l/m 2,5 km/h (1 Bft) N-NO 23 0 min 0,000 mm 62 W/m 4,8 C 17,9 C 16,1 km/h (3 Bft) 97 %
29.03.2014 17:00 17,7 C 17,7 C 17,9 C 43 % 1016,7 hPa 0,0 l/m 0,6 km/h (0 Bft) N-NO 16 0 min 0,076 mm 76 W/m 5,0 C 17,7 C 6,4 km/h (2 Bft) 97 %
29.03.2014 17:10 17,6 C 17,6 C 17,7 C 42 % 1016,6 hPa 0,0 l/m 0,4 km/h (0 Bft) NO 38 0 min 0,000 mm 90 W/m 4,5 C 17,6 C 6,4 km/h (2 Bft) 98 %
29.03.2014 17:20 17,5 C 17,5 C 17,6 C 44 % 1016,6 hPa 0,0 l/m 0,3 km/h (0 Bft) O 88 0 min 0,000 mm 84 W/m 5,1 C 17,5 C 4,8 km/h (1 Bft) 97 %
29.03.2014 17:30 17,5 C 17,4 C 17,5 C 43 % 1016,6 hPa 0,0 l/m 0,7 km/h (0 Bft) N-NO 28 0 min 0,000 mm 70 W/m 4,8 C 17,5 C 8,0 km/h (2 Bft) 98 %
29.03.2014 17:40 17,4 C 17,3 C 17,5 C 44 % 1016,6 hPa 0,0 l/m 0,2 km/h (0 Bft) NO 39 0 min 0,000 mm 53 W/m 5,0 C 17,4 C 4,8 km/h (1 Bft) 97 %
29.03.2014 17:50 17,1 C 17,1 C 17,4 C 44 % 1016,6 hPa 0,0 l/m 0,3 km/h (0 Bft) NO 54 0 min 0,000 mm 46 W/m 4,8 C 17,1 C 4,8 km/h (1 Bft) 97 %
29.03.2014 18:00 16,8 C 16,8 C 17,1 C 44 % 1016,7 hPa 0,0 l/m 0,1 km/h (0 Bft) NO 45 0 min 0,051 mm 19 W/m 4,5 C 16,8 C 3,2 km/h (1 Bft) 97 %
29.03.2014 18:10 16,4 C 16,4 C 16,8 C 44 % 1016,7 hPa 0,0 l/m 0,1 km/h (0 Bft) NO 45 0 min 0,000 mm 14 W/m 4,1 C 16,4 C 1,6 km/h (1 Bft) 97 %
29.03.2014 18:20 16,1 C 16,0 C 16,4 C 45 % 1016,7 hPa 0,0 l/m 0,3 km/h (0 Bft) NO 36 0 min 0,000 mm 0 W/m 4,2 C 16,1 C 4,8 km/h (1 Bft) 98 %
29.03.2014 18:30 15,7 C 15,7 C 16,1 C 44 % 1016,7 hPa 0,0 l/m 0,0 km/h (0 Bft) NO 36 0 min 0,000 mm 0 W/m 3,5 C 15,7 C 1,6 km/h (1 Bft) 97 %
29.03.2014 18:40 15,4 C 15,4 C 15,7 C 45 % 1016,7 hPa 0,0 l/m 0,2 km/h (0 Bft) NO 46 0 min 0,000 mm 0 W/m 3,5 C 15,4 C 3,2 km/h (1 Bft) 97 %
29.03.2014 18:50 15,1 C 15,1 C 15,4 C 45 % 1016,7 hPa 0,0 l/m 0,0 km/h (0 Bft) NO 46 0 min 0,000 mm 0 W/m 3,3 C 15,1 C 1,6 km/h (1 Bft) 97 %
29.03.2014 19:00 15,0 C 15,0 C 15,1 C 46 % 1016,6 hPa 0,0 l/m 0,0 km/h (0 Bft) NO 46 0 min 0,026 mm 0 W/m 3,5 C 15,0 C 1,6 km/h (1 Bft) 89 %
29.03.2014 19:10 14,6 C 14,6 C 15,0 C 47 % 1016,7 hPa 0,0 l/m 0,1 km/h (0 Bft) NO 46 0 min 0,000 mm 0 W/m 3,4 C 14,6 C 3,2 km/h (1 Bft) 97 %
29.03.2014 19:20 14,2 C 14,2 C 14,6 C 47 % 1016,8 hPa 0,0 l/m 0,0 km/h (0 Bft) NO 46 0 min 0,000 mm 0 W/m 3,1 C 14,2 C 1,6 km/h (1 Bft) 97 %
29.03.2014 19:30 14,1 C 14,1 C 14,2 C 48 % 1017,0 hPa 0,0 l/m 0,2 km/h (0 Bft) O-NO 67 0 min 0,000 mm 0 W/m 3,3 C 14,1 C 4,8 km/h (1 Bft) 98 %
29.03.2014 19:40 13,9 C 13,9 C 14,1 C 48 % 1017,0 hPa 0,0 l/m 0,2 km/h (0 Bft) O-NO 65 0 min 0,000 mm 0 W/m 3,1 C 13,9 C 3,2 km/h (1 Bft) 97 %
29.03.2014 19:50 13,8 C 13,8 C 13,9 C 49 % 1017,0 hPa 0,0 l/m 0,3 km/h (0 Bft) O-NO 58 0 min 0,000 mm 0 W/m 3,3 C 13,8 C 3,2 km/h (1 Bft) 98 %
29.03.2014 20:00 13,6 C 13,6 C 13,8 C 49 % 1017,0 hPa 0,0 l/m 0,2 km/h (0 Bft) NO 55 0 min 0,050 mm 0 W/m 3,1 C 13,6 C 4,8 km/h (1 Bft) 97 %
29.03.2014 20:10 13,4 C 13,4 C 13,6 C 49 % 1016,9 hPa 0,0 l/m 0,0 km/h (0 Bft) NO 51 0 min 0,000 mm 0 W/m 2,9 C 13,4 C 3,2 km/h (1 Bft) 97 %
29.03.2014 20:20 13,3 C 13,3 C 13,4 C 49 % 1017,0 hPa 0,0 l/m 0,1 km/h (0 Bft) NO 36 0 min 0,000 mm 0 W/m 2,8 C 13,3 C 3,2 km/h (1 Bft) 98 %
29.03.2014 20:30 13,3 C 13,2 C 13,3 C 50 % 1017,0 hPa 0,0 l/m 0,2 km/h (0 Bft) O-NO 77 0 min 0,000 mm 0 W/m 3,1 C 13,3 C 4,8 km/h (1 Bft) 97 %
29.03.2014 20:40 13,2 C 13,2 C 13,3 C 49 % 1017,0 hPa 0,0 l/m 0,1 km/h (0 Bft) NO 53 0 min 0,000 mm 0 W/m 2,7 C 13,2 C 6,4 km/h (2 Bft) 97 %
29.03.2014 20:50 13,3 C 13,2 C 13,3 C 49 % 1016,9 hPa 0,0 l/m 0,4 km/h (0 Bft) N-NO 17 0 min 0,000 mm 0 W/m 2,8 C 13,3 C 6,4 km/h (2 Bft) 97 %
29.03.2014 21:00 13,2 C 13,2 C 13,3 C 48 % 1016,9 hPa 0,0 l/m 0,3 km/h (0 Bft) O-NO 74 0 min 0,051 mm 0 W/m 2,4 C 13,2 C 4,8 km/h (1 Bft) 89 %
29.03.2014 21:10 13,1 C 13,1 C 13,2 C 48 % 1017,0 hPa 0,0 l/m 0,0 km/h (0 Bft) O-NO 67 0 min 0,000 mm 0 W/m 2,3 C 13,1 C 4,8 km/h (1 Bft) 96 %
29.03.2014 21:20 13,1 C 13,1 C 13,1 C 48 % 1016,9 hPa 0,0 l/m 0,0 km/h (0 Bft) NO 45 0 min 0,000 mm 0 W/m 2,3 C 13,1 C 4,8 km/h (1 Bft) 100 %
29.03.2014 21:30 13,1 C 13,1 C 13,1 C 48 % 1017,0 hPa 0,0 l/m 0,0 km/h (0 Bft) NO 45 0 min 0,000 mm 0 W/m 2,3 C 13,1 C 4,8 km/h (1 Bft) 97 %
29.03.2014 21:40 12,8 C 12,8 C 13,2 C 50 % 1017,1 hPa 0,0 l/m 0,0 km/h (0 Bft) NO 45 0 min 0,000 mm 0 W/m 2,6 C 12,8 C 6,4 km/h (2 Bft) 99 %
29.03.2014 21:50 12,3 C 12,3 C 12,8 C 52 % 1017,1 hPa 0,0 l/m 0,0 km/h (0 Bft) O-NO 67 0 min 0,000 mm 0 W/m 2,7 C 12,3 C 1,6 km/h (1 Bft) 100 %
29.03.2014 22:00 11,3 C 11,3 C 12,3 C 57 % 1017,2 hPa 0,0 l/m 0,0 km/h (0 Bft) O-NO 67 0 min 0,051 mm 0 W/m 3,1 C 11,3 C 1,6 km/h (1 Bft) 100 %
29.03.2014 22:10 10,1 C 10,1 C 11,3 C 62 % 1017,2 hPa 0,0 l/m 1,6 km/h (1 Bft) N-NW 337 0 min 0,000 mm 0 W/m 3,2 C 10,1 C 6,4 km/h (2 Bft) 100 %
29.03.2014 22:20 9,2 C 9,2 C 10,1 C 64 % 1017,0 hPa 0,0 l/m 0,0 km/h (0 Bft) N-NW 337 0 min 0,000 mm 0 W/m 2,8 C 9,2 C 3,2 km/h (1 Bft) 99 %
29.03.2014 22:30 8,7 C 8,7 C 9,2 C 66 % 1017,0 hPa 0,0 l/m 0,0 km/h (0 Bft) NW 315 0 min 0,000 mm 0 W/m 2,7 C 8,7 C 1,6 km/h (1 Bft) 100 %
29.03.2014 22:40 8,0 C 8,0 C 8,7 C 69 % 1016,9 hPa 0,0 l/m 0,0 km/h (0 Bft) NW 315 0 min 0,000 mm 0 W/m 2,7 C 8,0 C 1,6 km/h (1 Bft) 100 %
29.03.2014 22:50 7,4 C 7,4 C 8,0 C 71 % 1016,9 hPa 0,0 l/m 0,0 km/h (0 Bft) N-NW 337 0 min 0,000 mm 0 W/m 2,5 C 7,4 C 3,2 km/h (1 Bft) 100 %
29.03.2014 23:00 7,0 C 7,0 C 7,4 C 73 % 1016,9 hPa 0,0 l/m 0,0 km/h (0 Bft) N-NW 337 0 min 0,025 mm 0 W/m 2,5 C 7,0 C 1,6 km/h (1 Bft) 100 %
29.03.2014 23:10 6,7 C 6,7 C 7,0 C 74 % 1016,9 hPa 0,0 l/m 0,0 km/h (0 Bft) N 360 0 min 0,000 mm 0 W/m 2,4 C 6,7 C 1,6 km/h (1 Bft) 100 %
29.03.2014 23:20 6,4 C 6,4 C 6,7 C 74 % 1017,0 hPa 0,0 l/m 0,0 km/h (0 Bft) N 360 0 min 0,000 mm 0 W/m 2,1 C 6,4 C 1,6 km/h (1 Bft) 100 %
29.03.2014 23:30 6,4 C 6,3 C 6,4 C 74 % 1016,9 hPa 0,0 l/m 0,0 km/h (0 Bft) N 360 0 min 0,000 mm 0 W/m 2,1 C 6,4 C 1,6 km/h (1 Bft) 100 %
29.03.2014 23:40 6,4 C 6,4 C 6,4 C 74 % 1016,8 hPa 0,0 l/m 0,0 km/h (0 Bft) N 360 0 min 0,000 mm 0 W/m 2,1 C 6,4 C 1,6 km/h (1 Bft) 100 %
29.03.2014 23:50 6,4 C 6,4 C 6,4 C 73 % 1016,8 hPa 0,0 l/m 0,0 km/h (0 Bft) N 360 0 min 0,000 mm 0 W/m 1,9 C 6,4 C 1,6 km/h (1 Bft) 100 %
_ Min-Zeit 06:00 06:00 06:00 12:40 17:10 - 00:00 - - - - - 06:00 06:00 01:10 00:10
Minimum _ 2,8 C 2,8 C 2,9 C 37 % 1016,6 hPa - 0,0 km/h (0 Bft) - - - - - 0,7 C 2,8 C 1,6 km/h (1 Bft) 80 %
_ Max-Zeit 15:30 15:30 15:30 06:10 07:30 00:00 12:40 - - 07:30 13:00 12:20 11:20 15:30 12:00 00:00
Maximum _ 19,8 C 19,6 C 19,8 C 87 % 1020,3 hPa 0,0 l/m 5,0 km/h
O (1 Bft)
- - 10 min 0,407 mm 701 W/m 6,1 C 19,8 C 24,1 km/h
N-NO (4 Bft)
100 %
Durchschnitt _ 11,2 C 11,0 C 11,3 C 61 % 1018,4 hPa #0,0 l/m 0,8 km/h (0 Bft) O - #8:10 h #2,819 mm 371 W/m 3,3 C 11,2 C 6,9 km/h (2 Bft) 99 %
PRIVATE WETTERSTATION BILLIGHEIM-ALLFELD - www.neckar-odenwald-wetter.de - Holger Sonntag